createdAt,value
2022-08-30T00:01:32.987Z,98.00
2022-08-30T00:04:02.036Z,97.90
2022-08-30T00:06:30.406Z,98.00
2022-08-30T00:08:57.865Z,98.00
2022-08-30T00:11:29.573Z,98.00
2022-08-30T00:13:58.211Z,98.10
2022-08-30T00:16:26.839Z,98.30
2022-08-30T00:18:54.650Z,98.60
2022-08-30T00:21:22.334Z,98.50
2022-08-30T00:23:50.076Z,98.50
2022-08-30T00:26:17.321Z,98.70
2022-08-30T00:28:44.494Z,98.60
2022-08-30T00:31:13.556Z,98.60
2022-08-30T00:33:43.567Z,98.70
2022-08-30T00:36:10.589Z,98.70
2022-08-30T00:38:37.529Z,98.80
2022-08-30T00:41:05.548Z,98.80
2022-08-30T00:43:37.573Z,98.90
2022-08-30T00:46:08.747Z,99.00
2022-08-30T00:48:40.990Z,99.30
2022-08-30T00:51:11.553Z,99.70
2022-08-30T00:53:44.327Z,99.90
2022-08-30T00:56:12.800Z,99.80
2022-08-30T00:58:45.555Z,99.80
2022-08-30T01:01:13.366Z,99.70
2022-08-30T01:03:41.945Z,99.80
2022-08-30T01:06:09.584Z,99.60
2022-08-30T01:08:37.345Z,99.60
2022-08-30T01:11:05.499Z,99.70
2022-08-30T01:13:35.806Z,99.80
2022-08-30T01:16:04.064Z,99.90
2022-08-30T01:18:32.260Z,99.90
2022-08-30T01:21:04.102Z,99.90
2022-08-30T01:23:33.514Z,99.90
2022-08-30T01:26:02.878Z,99.90
2022-08-30T01:28:31.174Z,99.90
2022-08-30T01:30:59.067Z,99.90
2022-08-30T01:33:27.504Z,99.90
2022-08-30T01:36:04.469Z,99.90
2022-08-30T01:38:36.751Z,99.90
2022-08-30T01:41:11.159Z,99.90
2022-08-30T01:43:38.413Z,99.90
2022-08-30T01:46:06.115Z,99.90
2022-08-30T01:48:34.343Z,99.90
2022-08-30T01:51:02.957Z,99.90
2022-08-30T01:53:30.119Z,99.90
2022-08-30T01:55:57.425Z,99.90
2022-08-30T01:58:25.086Z,99.90
2022-08-30T02:00:52.495Z,99.90
2022-08-30T02:03:22.736Z,99.90
2022-08-30T02:05:50.457Z,99.90
2022-08-30T02:08:17.781Z,99.90
2022-08-30T02:10:44.945Z,99.90
2022-08-30T02:13:12.257Z,99.90
2022-08-30T02:15:41.714Z,99.90
2022-08-30T02:18:10.793Z,99.90
2022-08-30T02:20:40.027Z,99.90
2022-08-30T02:23:07.437Z,99.90
2022-08-30T02:25:34.669Z,99.90
2022-08-30T02:28:01.934Z,99.90
2022-08-30T02:30:29.511Z,99.90
2022-08-30T02:32:57.501Z,99.90
2022-08-30T02:35:24.561Z,99.90
2022-08-30T02:37:52.271Z,99.90
2022-08-30T02:40:21.295Z,99.90
2022-08-30T02:42:49.575Z,99.90
2022-08-30T02:45:16.744Z,99.90
2022-08-30T02:47:47.142Z,99.90
2022-08-30T02:50:15.498Z,99.90
2022-08-30T02:52:48.530Z,99.90
2022-08-30T02:55:16.709Z,99.90
2022-08-30T02:57:44.824Z,99.90
2022-08-30T03:00:15.151Z,99.90
2022-08-30T03:02:42.538Z,99.90
2022-08-30T03:05:13.060Z,99.90
2022-08-30T03:07:41.739Z,99.90
2022-08-30T03:10:09.860Z,99.90
2022-08-30T03:12:37.242Z,99.90
2022-08-30T03:15:06.621Z,99.90
2022-08-30T03:17:34.498Z,99.90
2022-08-30T03:20:02.254Z,99.90
2022-08-30T03:22:29.762Z,99.90
2022-08-30T03:24:59.569Z,99.90
2022-08-30T03:27:27.923Z,99.90
2022-08-30T03:29:55.734Z,99.90
2022-08-30T03:32:23.200Z,99.90
2022-08-30T03:34:50.489Z,99.90
2022-08-30T03:37:17.975Z,99.90
2022-08-30T03:39:45.644Z,99.90
2022-08-30T03:42:13.368Z,99.90
2022-08-30T03:44:40.454Z,99.90
2022-08-30T03:47:08.584Z,99.90
2022-08-30T03:49:35.597Z,99.90
2022-08-30T03:52:03.097Z,99.90
2022-08-30T03:54:30.317Z,99.90
2022-08-30T03:56:57.421Z,99.90
2022-08-30T03:59:24.550Z,99.90
2022-08-30T04:01:52.136Z,99.90
2022-08-30T04:04:21.108Z,99.90
2022-08-30T04:06:49.879Z,99.90
2022-08-30T04:09:17.904Z,99.90
2022-08-30T04:11:44.918Z,99.90
2022-08-30T04:14:11.953Z,99.90
2022-08-30T04:16:38.920Z,99.90
2022-08-30T04:19:06.141Z,99.90
2022-08-30T04:21:33.243Z,99.90
2022-08-30T04:24:04.241Z,99.90
2022-08-30T04:26:31.213Z,99.90
2022-08-30T04:28:59.472Z,99.90
2022-08-30T04:31:27.488Z,99.90
2022-08-30T04:33:54.889Z,99.90
2022-08-30T04:36:22.285Z,99.90
2022-08-30T04:38:49.491Z,99.90
2022-08-30T04:41:19.201Z,99.90
2022-08-30T04:43:51.020Z,99.90
2022-08-30T04:46:19.181Z,99.90
2022-08-30T04:48:47.313Z,99.90
2022-08-30T04:51:16.854Z,99.90
2022-08-30T04:53:45.163Z,99.90
2022-08-30T04:56:16.571Z,99.90
2022-08-30T04:58:48.038Z,99.90
2022-08-30T05:01:20.064Z,99.90
2022-08-30T05:03:50.396Z,99.90
2022-08-30T05:06:18.368Z,99.90
2022-08-30T05:08:46.606Z,99.90
2022-08-30T05:11:15.476Z,99.90
2022-08-30T05:13:43.022Z,99.90
2022-08-30T05:16:10.393Z,99.90
2022-08-30T05:18:37.656Z,99.90
2022-08-30T05:21:10.552Z,99.90
2022-08-30T05:23:39.538Z,99.90
2022-08-30T05:26:13.335Z,99.90
2022-08-30T05:28:40.795Z,99.90
2022-08-30T05:31:24.354Z,99.90
2022-08-30T05:33:53.533Z,99.90
2022-08-30T05:36:23.823Z,99.90
2022-08-30T05:38:52.316Z,99.90
2022-08-30T05:41:21.119Z,99.90
2022-08-30T05:43:48.677Z,99.90
2022-08-30T05:46:19.950Z,99.90
2022-08-30T05:48:48.011Z,99.90
2022-08-30T05:51:21.364Z,99.90
2022-08-30T05:53:50.526Z,99.90
2022-08-30T05:56:21.313Z,99.90
2022-08-30T05:58:52.102Z,99.90
2022-08-30T06:01:25.078Z,99.90
2022-08-30T06:03:53.204Z,99.90
2022-08-30T06:06:20.591Z,99.90
2022-08-30T06:08:49.011Z,99.90
2022-08-30T06:11:19.073Z,99.90
2022-08-30T06:13:47.252Z,99.90
2022-08-30T06:16:16.752Z,99.90
2022-08-30T06:18:44.926Z,99.90
2022-08-30T06:21:26.419Z,99.90
2022-08-30T06:24:00.219Z,99.90
2022-08-30T06:26:30.138Z,99.90
2022-08-30T06:28:58.451Z,99.90
2022-08-30T06:31:26.958Z,99.90
2022-08-30T06:33:55.065Z,99.90
2022-08-30T06:36:24.840Z,99.90
2022-08-30T06:38:57.146Z,99.90
2022-08-30T06:41:28.211Z,99.90
2022-08-30T06:43:56.448Z,99.90
2022-08-30T06:46:29.152Z,99.90
2022-08-30T06:48:56.866Z,99.90
2022-08-30T06:51:26.701Z,99.90
2022-08-30T06:53:54.481Z,99.90
2022-08-30T06:56:22.629Z,99.90
2022-08-30T06:58:50.547Z,99.90
2022-08-30T07:01:21.783Z,99.90
2022-08-30T07:03:49.273Z,99.90
2022-08-30T07:06:16.704Z,99.90
2022-08-30T07:08:46.979Z,99.90
2022-08-30T07:11:15.251Z,99.90
2022-08-30T07:13:45.685Z,99.90
2022-08-30T07:16:14.623Z,99.90
2022-08-30T07:18:50.819Z,99.90
2022-08-30T07:21:20.116Z,99.90
2022-08-30T07:23:53.388Z,99.90
2022-08-30T07:26:32.025Z,99.90
2022-08-30T07:28:59.682Z,99.90
2022-08-30T07:31:26.922Z,99.90
2022-08-30T07:33:54.528Z,99.90
2022-08-30T07:36:22.086Z,99.90
2022-08-30T07:38:50.963Z,99.90
2022-08-30T07:41:24.401Z,99.90
2022-08-30T07:43:51.999Z,99.90
2022-08-30T07:46:20.407Z,99.90
2022-08-30T07:48:47.837Z,99.90
2022-08-30T07:51:19.126Z,99.90
2022-08-30T07:53:47.224Z,99.90
2022-08-30T07:56:14.762Z,99.90
2022-08-30T07:58:43.061Z,99.90
2022-08-30T08:01:12.582Z,99.90
2022-08-30T08:03:43.097Z,99.90
2022-08-30T08:06:13.381Z,99.90
2022-08-30T08:08:41.622Z,99.90
2022-08-30T08:11:17.878Z,99.90
2022-08-30T08:13:54.140Z,99.90
2022-08-30T08:16:24.803Z,99.90
2022-08-30T08:18:53.932Z,99.90
2022-08-30T08:21:25.295Z,99.90
2022-08-30T08:23:52.681Z,99.90
2022-08-30T08:26:20.953Z,99.90
2022-08-30T08:28:49.655Z,99.90
2022-08-30T08:31:31.460Z,99.90
2022-08-30T08:34:07.732Z,99.90
2022-08-30T08:36:37.385Z,99.90
2022-08-30T08:39:07.728Z,99.90
2022-08-30T08:42:20.585Z,99.90
2022-08-30T08:45:10.166Z,99.90
2022-08-30T08:47:59.084Z,99.90
2022-08-30T08:50:30.249Z,99.90
2022-08-30T08:53:46.765Z,99.90
2022-08-30T08:56:17.517Z,99.90
2022-08-30T08:58:51.555Z,99.90
2022-08-30T09:01:21.170Z,99.90
2022-08-30T09:03:49.743Z,99.90
2022-08-30T09:06:22.508Z,99.90
2022-08-30T09:08:49.924Z,99.90
2022-08-30T09:11:26.215Z,99.90
2022-08-30T09:13:54.901Z,99.90
2022-08-30T09:17:02.839Z,99.90
2022-08-30T09:19:50.802Z,99.90
2022-08-30T09:22:35.710Z,99.90
2022-08-30T09:25:10.983Z,99.90
2022-08-30T09:27:39.670Z,99.90
2022-08-30T09:30:07.103Z,99.90
2022-08-30T09:32:52.552Z,99.90
2022-08-30T09:35:43.591Z,99.90
2022-08-30T09:38:17.516Z,99.90
2022-08-30T09:40:52.737Z,99.90
2022-08-30T09:43:23.260Z,99.90
2022-08-30T09:46:01.655Z,99.90
2022-08-30T09:48:44.266Z,99.90
2022-08-30T09:51:11.850Z,99.90
2022-08-30T09:54:16.623Z,99.80
2022-08-30T09:57:05.282Z,99.90
2022-08-30T10:00:00.392Z,99.90
2022-08-30T10:02:41.145Z,99.90
2022-08-30T10:05:27.855Z,99.90
2022-08-30T10:08:09.432Z,99.90
2022-08-30T10:11:07.388Z,99.90
2022-08-30T10:14:02.980Z,99.80
2022-08-30T10:16:30.016Z,99.00
2022-08-30T10:18:59.909Z,98.60
2022-08-30T10:21:39.880Z,98.90
2022-08-30T10:24:13.051Z,99.50
2022-08-30T10:27:02.513Z,99.40
2022-08-30T10:29:49.492Z,98.30
2022-08-30T10:32:25.991Z,98.60
2022-08-30T10:35:19.608Z,98.90
2022-08-30T10:38:11.156Z,98.00
2022-08-30T10:41:00.793Z,97.10
2022-08-30T10:43:50.987Z,97.70
2022-08-30T10:46:36.155Z,97.50
2022-08-30T10:49:08.808Z,97.50
2022-08-30T10:51:36.065Z,97.90
2022-08-30T10:54:41.203Z,97.00
2022-08-30T10:57:08.446Z,96.60
2022-08-30T10:59:38.985Z,96.80
2022-08-30T11:02:11.161Z,97.00
2022-08-30T11:05:11.184Z,96.70
2022-08-30T11:08:02.310Z,97.10
2022-08-30T11:10:50.126Z,96.80
2022-08-30T11:13:24.095Z,96.90
2022-08-30T11:16:04.508Z,96.90
2022-08-30T11:18:34.877Z,95.90
2022-08-30T11:21:23.344Z,95.50
2022-08-30T11:24:11.989Z,95.60
2022-08-30T11:26:45.824Z,95.20
2022-08-30T11:29:36.166Z,95.00
2022-08-30T11:32:12.520Z,94.40
2022-08-30T11:34:46.008Z,94.60
2022-08-30T11:37:57.695Z,94.60
2022-08-30T11:40:24.619Z,94.90
2022-08-30T11:42:54.941Z,94.60
2022-08-30T11:45:28.122Z,94.40
2022-08-30T11:47:59.621Z,94.30
2022-08-30T11:50:49.658Z,94.20
2022-08-30T11:53:24.580Z,94.50
2022-08-30T11:56:26.038Z,94.70
2022-08-30T11:59:07.776Z,94.00
2022-08-30T12:01:50.123Z,93.90
2022-08-30T12:04:19.869Z,93.60
2022-08-30T12:06:59.458Z,93.30
2022-08-30T12:09:26.797Z,94.00
2022-08-30T12:12:32.604Z,93.10
2022-08-30T12:15:00.552Z,92.70
2022-08-30T12:18:13.145Z,92.70
2022-08-30T12:20:50.208Z,93.20
2022-08-30T12:23:23.712Z,92.20
2022-08-30T12:26:13.629Z,92.00
2022-08-30T12:28:42.026Z,91.80
2022-08-30T12:31:16.323Z,91.60
2022-08-30T12:33:48.257Z,92.30
2022-08-30T12:36:48.653Z,91.90
2022-08-30T12:39:18.002Z,91.80
2022-08-30T12:41:45.596Z,90.90
2022-08-30T12:44:33.810Z,91.10
2022-08-30T12:47:04.669Z,91.40
2022-08-30T12:49:38.114Z,91.20
2022-08-30T12:52:26.014Z,91.00
2022-08-30T12:54:55.093Z,91.60
2022-08-30T12:57:54.545Z,91.70
2022-08-30T13:00:34.497Z,90.70
2022-08-30T13:03:16.045Z,90.70
2022-08-30T13:05:48.029Z,90.80
2022-08-30T13:08:18.863Z,91.30
2022-08-30T13:11:08.514Z,91.60
2022-08-30T13:13:44.502Z,91.30
2022-08-30T13:16:23.455Z,91.90
2022-08-30T13:19:28.258Z,91.10
2022-08-30T13:21:59.023Z,90.80
2022-08-30T13:24:26.903Z,91.20
2022-08-30T13:26:58.490Z,90.90
2022-08-30T13:29:28.367Z,90.40
2022-08-30T13:31:56.661Z,90.10
2022-08-30T13:34:24.043Z,90.90
2022-08-30T13:36:57.935Z,90.80
2022-08-30T13:39:27.027Z,90.60
2022-08-30T13:41:55.320Z,91.00
2022-08-30T13:44:42.318Z,90.50
2022-08-30T13:49:59.531Z,90.00
2022-08-30T13:52:28.498Z,90.20
2022-08-30T13:54:57.190Z,88.30
2022-08-30T14:00:19.779Z,88.50
2022-08-30T14:02:54.715Z,88.70
2022-08-30T14:05:54.712Z,89.40
2022-08-30T14:11:13.834Z,88.80
2022-08-30T14:16:32.767Z,87.60
2022-08-30T14:19:00.745Z,86.50
2022-08-30T14:21:28.370Z,87.20
2022-08-30T14:23:57.891Z,85.50
2022-08-30T14:26:32.330Z,85.30
2022-08-30T14:29:01.384Z,87.40
2022-08-30T14:31:30.081Z,87.10
2022-08-30T14:34:01.697Z,88.40
2022-08-30T14:36:31.489Z,88.90
2022-08-30T14:38:59.470Z,87.90
2022-08-30T14:41:26.804Z,87.30
2022-08-30T14:43:54.142Z,88.00
2022-08-30T14:46:25.743Z,87.70
2022-08-30T14:48:56.136Z,88.10
2022-08-30T14:51:24.036Z,87.50
2022-08-30T14:53:54.020Z,86.00
2022-08-30T14:56:22.822Z,87.20
2022-08-30T14:58:51.714Z,87.40
2022-08-30T15:01:20.520Z,85.00
2022-08-30T15:03:47.801Z,85.30
2022-08-30T15:06:15.756Z,86.60
2022-08-30T15:08:43.373Z,86.50
2022-08-30T15:11:19.133Z,86.10
2022-08-30T15:13:46.966Z,87.30
2022-08-30T15:16:21.052Z,87.40
2022-08-30T15:18:49.074Z,86.40
2022-08-30T15:21:23.918Z,86.90
2022-08-30T15:23:52.401Z,86.80
2022-08-30T15:26:20.255Z,86.10
2022-08-30T15:28:47.496Z,86.70
2022-08-30T15:31:15.002Z,86.30
2022-08-30T15:33:42.262Z,87.10
2022-08-30T15:36:12.514Z,86.70
2022-08-30T15:38:41.207Z,86.40
2022-08-30T15:41:12.430Z,87.40
2022-08-30T15:43:41.286Z,87.20
2022-08-30T15:46:55.358Z,88.40
2022-08-30T15:49:24.014Z,88.50
2022-08-30T15:51:53.994Z,87.40
2022-08-30T15:54:22.888Z,88.00
2022-08-30T15:56:50.659Z,88.40
2022-08-30T15:59:19.973Z,87.50
2022-08-30T16:01:47.730Z,86.70
2022-08-30T16:04:18.480Z,88.00
2022-08-30T16:06:47.053Z,87.90
2022-08-30T16:09:14.722Z,88.30
2022-08-30T16:11:42.345Z,88.20
2022-08-30T16:14:09.597Z,87.90
2022-08-30T16:16:39.882Z,88.50
2022-08-30T16:19:09.197Z,88.60
2022-08-30T16:21:37.459Z,87.70
2022-08-30T16:24:06.937Z,88.20
2022-08-30T16:26:35.278Z,88.30
2022-08-30T16:29:05.718Z,88.40
2022-08-30T16:31:36.059Z,88.90
2022-08-30T16:34:04.152Z,88.50
2022-08-30T16:36:33.603Z,88.70
2022-08-30T16:39:00.764Z,89.10
2022-08-30T16:41:28.384Z,87.90
2022-08-30T16:43:56.628Z,88.70
2022-08-30T16:46:27.863Z,89.80
2022-08-30T16:48:58.078Z,89.50
2022-08-30T16:51:27.089Z,88.60
2022-08-30T16:53:59.253Z,88.40
2022-08-30T16:56:29.511Z,88.20
2022-08-30T16:59:02.241Z,89.10
2022-08-30T17:01:37.634Z,88.40
2022-08-30T17:04:07.953Z,87.20
2022-08-30T17:06:36.460Z,87.20
2022-08-30T17:09:06.134Z,87.00
2022-08-30T17:11:34.972Z,90.00
2022-08-30T17:14:02.632Z,90.10
2022-08-30T17:16:30.287Z,90.80
2022-08-30T17:19:00.664Z,88.20
2022-08-30T17:21:31.270Z,87.30
2022-08-30T17:24:02.059Z,88.20
2022-08-30T17:26:34.763Z,88.20
2022-08-30T17:29:02.553Z,88.70
2022-08-30T17:31:31.276Z,89.10
2022-08-30T17:34:04.229Z,89.40
2022-08-30T17:36:35.582Z,89.60
2022-08-30T17:39:11.042Z,89.10
2022-08-30T17:41:50.269Z,89.60
2022-08-30T17:44:29.683Z,90.00
2022-08-30T17:46:58.521Z,89.80
2022-08-30T17:49:28.176Z,90.20
2022-08-30T17:51:57.104Z,90.20
2022-08-30T17:54:26.825Z,90.50
2022-08-30T17:56:54.613Z,90.00
2022-08-30T17:59:25.083Z,90.30
2022-08-30T18:01:54.936Z,90.20
2022-08-30T18:04:24.704Z,90.40
2022-08-30T18:06:52.879Z,90.20
2022-08-30T18:09:20.409Z,90.30
2022-08-30T18:11:48.786Z,90.20
2022-08-30T18:14:17.139Z,90.20
2022-08-30T18:16:53.615Z,90.30
2022-08-30T18:19:23.545Z,90.60
2022-08-30T18:21:51.677Z,90.50
2022-08-30T18:24:19.237Z,90.60
2022-08-30T18:26:46.704Z,90.80
2022-08-30T18:29:14.082Z,91.10
2022-08-30T18:31:41.498Z,90.60
2022-08-30T18:34:12.490Z,90.70
2022-08-30T18:36:41.378Z,91.00
2022-08-30T18:39:09.073Z,90.90
2022-08-30T18:41:43.033Z,90.50
2022-08-30T18:44:27.233Z,91.00
2022-08-30T18:46:57.248Z,91.10
2022-08-30T18:49:26.208Z,91.00
2022-08-30T18:51:54.145Z,90.50
2022-08-30T18:54:21.497Z,90.40
2022-08-30T18:56:50.025Z,90.60
2022-08-30T18:59:19.241Z,90.70
2022-08-30T19:01:47.246Z,90.70
2022-08-30T19:04:22.510Z,90.80
2022-08-30T19:07:01.918Z,90.60
2022-08-30T19:09:29.465Z,90.40
2022-08-30T19:11:56.552Z,90.60
2022-08-30T19:14:23.649Z,90.80
2022-08-30T19:16:56.403Z,90.50
2022-08-30T19:19:23.711Z,90.50
2022-08-30T19:21:51.793Z,90.40
2022-08-30T19:24:20.067Z,90.50
2022-08-30T19:26:47.566Z,90.90
2022-08-30T19:29:15.420Z,90.90
2022-08-30T19:31:44.045Z,91.20
2022-08-30T19:34:12.311Z,90.90
2022-08-30T19:36:39.916Z,91.40
2022-08-30T19:39:07.527Z,91.30
2022-08-30T19:41:34.918Z,91.20
2022-08-30T19:44:03.396Z,91.20
2022-08-30T19:46:32.520Z,90.90
2022-08-30T19:49:01.228Z,90.50
2022-08-30T19:51:28.818Z,90.30
2022-08-30T19:53:59.810Z,90.50
2022-08-30T19:56:30.027Z,90.60
2022-08-30T19:58:57.869Z,90.40
2022-08-30T20:01:33.165Z,90.50
2022-08-30T20:04:02.515Z,90.70
2022-08-30T20:06:31.033Z,91.00
2022-08-30T20:08:59.901Z,91.00
2022-08-30T20:11:28.061Z,90.80
2022-08-30T20:13:55.482Z,91.00
2022-08-30T20:16:35.737Z,91.10
2022-08-30T20:19:07.022Z,91.30
2022-08-30T20:21:34.389Z,91.10
2022-08-30T20:24:04.127Z,91.00
2022-08-30T20:26:34.483Z,90.80
2022-08-30T20:29:03.097Z,91.10
2022-08-30T20:31:30.542Z,91.20
2022-08-30T20:33:57.783Z,91.00
2022-08-30T20:36:25.052Z,91.30
2022-08-30T20:38:52.651Z,91.30
2022-08-30T20:41:20.076Z,91.50
2022-08-30T20:43:50.068Z,91.00
2022-08-30T20:46:19.828Z,91.50
2022-08-30T20:48:48.175Z,91.10
2022-08-30T20:51:18.829Z,91.20
2022-08-30T20:53:46.479Z,91.40
2022-08-30T20:56:16.277Z,91.50
2022-08-30T20:58:46.085Z,91.00
2022-08-30T21:01:13.731Z,91.40
2022-08-30T21:03:42.153Z,91.20
2022-08-30T21:06:11.938Z,91.40
2022-08-30T21:08:39.889Z,91.50
2022-08-30T21:11:07.684Z,91.30
2022-08-30T21:13:35.195Z,91.40
2022-08-30T21:16:03.641Z,91.50
2022-08-30T21:18:34.033Z,91.60
2022-08-30T21:21:09.276Z,92.20
2022-08-30T21:23:37.497Z,91.80
2022-08-30T21:26:06.837Z,91.70
2022-08-30T21:28:34.333Z,91.80
2022-08-30T21:31:12.928Z,91.60
2022-08-30T21:33:45.391Z,92.20
2022-08-30T21:36:31.099Z,91.70
2022-08-30T21:39:00.693Z,92.00
2022-08-30T21:41:30.150Z,91.80
2022-08-30T21:44:02.664Z,91.90
2022-08-30T21:46:32.092Z,92.20
2022-08-30T21:49:01.683Z,91.90
2022-08-30T21:51:32.131Z,91.90
2022-08-30T21:53:59.549Z,92.10
2022-08-30T21:56:26.552Z,92.10
2022-08-30T21:58:54.923Z,92.00
2022-08-30T22:01:28.836Z,92.10
2022-08-30T22:04:00.975Z,92.20
2022-08-30T22:06:30.734Z,92.40
2022-08-30T22:09:01.112Z,92.40
2022-08-30T22:11:31.189Z,92.20
2022-08-30T22:14:26.427Z,92.00
2022-08-30T22:16:54.095Z,91.90
2022-08-30T22:19:23.532Z,92.10
2022-08-30T22:21:55.453Z,92.40
2022-08-30T22:24:32.776Z,92.40
2022-08-30T22:27:03.234Z,92.40
2022-08-30T22:29:30.832Z,92.50
2022-08-30T22:31:57.920Z,92.30
2022-08-30T22:34:27.729Z,92.10
2022-08-30T22:36:55.009Z,92.40
2022-08-30T22:39:22.260Z,92.70
2022-08-30T22:41:50.461Z,92.80
2022-08-30T22:44:18.926Z,92.80
2022-08-30T22:46:46.571Z,93.00
2022-08-30T22:49:13.845Z,92.90
2022-08-30T22:51:41.918Z,93.10
2022-08-30T22:54:10.400Z,93.30
2022-08-30T22:56:39.080Z,93.20
2022-08-30T22:59:06.784Z,93.30
2022-08-30T23:01:40.154Z,93.20
2022-08-30T23:04:08.667Z,93.20
2022-08-30T23:06:36.788Z,93.20
2022-08-30T23:09:06.095Z,93.10
2022-08-30T23:11:33.276Z,93.20
2022-08-30T23:14:02.222Z,93.10
2022-08-30T23:16:29.920Z,93.20
2022-08-30T23:18:57.355Z,93.40
2022-08-30T23:21:27.476Z,93.50
2022-08-30T23:24:15.816Z,93.50
2022-08-30T23:27:03.539Z,93.50
2022-08-30T23:29:50.069Z,93.70
2022-08-30T23:32:36.149Z,93.80
2022-08-30T23:35:29.206Z,94.00
2022-08-30T23:38:17.225Z,94.20
2022-08-30T23:41:06.153Z,94.50
2022-08-30T23:44:11.122Z,94.70
2022-08-30T23:46:57.016Z,95.10
2022-08-30T23:49:42.892Z,95.50
2022-08-30T23:52:28.522Z,95.60
2022-08-30T23:55:14.679Z,96.00
2022-08-30T23:58:00.654Z,96.10
